Time;durP1;ratioP1;P1;durP2;ratioP2;P2;SDS_P1;SDS_P2;PMS_P1;PMS_P2;Temp;Humidity;BMP_temperature;BMP_pressure;BME280_temperature;BME280_humidity;BME280_pressure;Samples;Min_cycle;Max_cycle;Signal;HPM_P1;HPM_P2
2021/01/10 00:02:00;;;;;;;47.03;26.05;;;;;;;-1.82;86.64;100494.57;1784513;80;21299;-76
2021/01/10 00:05:06;;;;;;;53.58;30.48;;;;;;;-1.81;86.64;100498.97;1784911;80;21296;-75
2021/01/10 00:08:11;;;;;;;43.17;25.97;;;;;;;-1.82;86.65;100498.59;1784636;80;21189;-75
2021/01/10 00:11:16;;;;;;;46.25;28.30;;;;;;;-1.82;86.59;100502.61;1784823;80;21299;-76
2021/01/10 00:14:21;;;;;;;51.53;30.30;;;;;;;-1.87;86.48;100504.71;1784907;80;21746;-76
2021/01/10 00:17:26;;;;;;;44.48;25.60;;;;;;;-1.87;86.54;100510.55;1784879;80;21176;-76
2021/01/10 00:20:33;;;;;;;47.15;26.23;;;;;;;-1.89;86.49;100499.91;1784576;80;21315;-76
2021/01/10 00:23:39;;;;;;;49.05;27.42;;;;;;;-1.90;86.39;100497.33;1783316;80;21354;-75
2021/01/10 00:26:44;;;;;;;42.40;24.80;;;;;;;-1.92;86.35;100501.93;1783998;80;21248;-76
2021/01/10 00:29:54;;;;;;;50.33;27.73;;;;;;;-1.94;86.32;100503.34;1784859;80;21304;-76
2021/01/10 00:33:02;;;;;;;47.10;24.67;;;;;;;-1.97;86.30;100500.86;1784844;80;21180;-77
2021/01/10 00:36:07;;;;;;;55.28;29.48;;;;;;;-1.98;86.26;100501.80;1785737;79;21224;-77
2021/01/10 00:39:12;;;;;;;42.15;24.70;;;;;;;-2.00;86.21;100500.17;1784840;80;21279;-77
2021/01/10 00:42:18;;;;;;;51.58;27.82;;;;;;;-2.02;86.16;100500.28;1782781;80;21342;-76
2021/01/10 00:45:24;;;;;;;53.08;29.10;;;;;;;-2.06;86.09;100495.57;1784864;80;21300;-76
2021/01/10 00:48:30;;;;;;;50.65;27.90;;;;;;;-2.07;86.16;100494.30;1784841;80;21303;-76
2021/01/10 00:51:35;;;;;;;55.55;29.80;;;;;;;-2.06;86.20;100502.27;1784863;80;21289;-77
2021/01/10 00:54:41;;;;;;;49.48;28.95;;;;;;;-2.07;86.07;100496.53;1784845;80;21279;-76
2021/01/10 00:57:47;;;;;;;44.90;25.50;;;;;;;-2.07;86.01;100494.30;1783511;80;21272;-76
2021/01/10 01:00:53;;;;;;;55.92;30.60;;;;;;;-2.07;85.91;100492.96;1784903;80;21288;-76
2021/01/10 01:03:58;;;;;;;43.98;26.45;;;;;;;-2.09;85.87;100493.06;1784854;80;21870;-77
2021/01/10 01:07:04;;;;;;;49.55;29.05;;;;;;;-2.08;85.90;100497.46;1784653;80;21221;-76
2021/01/10 01:10:13;;;;;;;48.55;28.27;;;;;;;-2.06;85.86;100500.93;1784793;80;21292;-77
2021/01/10 01:13:18;;;;;;;50.12;27.22;;;;;;;-2.03;85.84;100499.87;1785005;80;21339;-75
2021/01/10 01:16:23;;;;;;;47.62;26.65;;;;;;;-2.01;85.60;100499.31;1784619;80;21302;-76
2021/01/10 01:19:29;;;;;;;45.60;26.20;;;;;;;-2.03;85.23;100501.20;1785220;80;21300;-76
2021/01/10 01:22:35;;;;;;;51.08;28.32;;;;;;;-2.12;84.87;100496.39;1784529;80;21218;-76
2021/01/10 01:25:41;;;;;;;48.00;27.13;;;;;;;-2.23;84.66;100501.05;1783458;80;21215;-76
2021/01/10 01:28:46;;;;;;;54.88;29.65;;;;;;;-2.30;84.63;100502.87;1783394;80;21291;-76
2021/01/10 01:31:52;;;;;;;47.27;26.93;;;;;;;-2.33;84.76;100499.39;1783549;80;21417;-76
2021/01/10 01:34:59;;;;;;;54.73;28.95;;;;;;;-2.32;84.92;100500.26;1783498;79;21213;-76
2021/01/10 01:38:04;;;;;;;44.65;25.92;;;;;;;-2.28;85.08;100494.25;1783902;80;21327;-76
2021/01/10 01:41:09;;;;;;;48.48;27.73;;;;;;;-2.24;85.10;100495.80;1783510;80;21164;-76
2021/01/10 01:44:14;;;;;;;48.90;27.85;;;;;;;-2.24;85.10;100495.80;1772268;80;21328;-75
2021/01/10 01:47:24;;;;;;;47.15;27.95;;;;;;;-2.23;85.16;100494.84;1770697;81;21340;-75
2021/01/10 01:50:30;;;;;;;47.85;24.32;;;;;;;-2.22;85.20;100489.86;1771227;81;21291;-76
2021/01/10 01:53:36;;;;;;;45.63;24.57;;;;;;;-2.22;85.09;100485.36;1770528;81;21331;-75
2021/01/10 01:56:42;;;;;;;50.78;29.65;;;;;;;-2.24;84.98;100495.80;1769765;81;21868;-76
2021/01/10 01:59:48;;;;;;;56.77;29.35;;;;;;;-2.29;84.92;100493.87;1769697;80;21165;-75
2021/01/10 02:02:56;;;;;;;51.20;27.85;;;;;;;-2.30;84.90;100490.33;1771218;81;21838;-76
2021/01/10 02:06:03;;;;;;;52.73;28.90;;;;;;;-2.27;85.03;100491.95;1771106;81;21292;-75
2021/01/10 02:09:13;;;;;;;48.68;29.25;;;;;;;-2.22;85.14;100487.18;1771303;81;21221;-75
2021/01/10 02:12:20;;;;;;;48.48;28.32;;;;;;;-2.19;85.05;100489.20;1772322;81;21792;-75
2021/01/10 02:15:31;;;;;;;46.85;27.48;;;;;;;-2.18;84.82;100498.11;1771277;81;21181;-75
2021/01/10 02:18:39;;;;;;;44.70;27.37;;;;;;;-2.19;84.51;100498.59;1770117;81;21836;-75
2021/01/10 02:21:44;;;;;;;54.63;27.27;;;;;;;-2.25;84.10;100494.08;1771737;81;21194;-75
2021/01/10 02:24:43;;;;;;;46.83;27.52;;;;;;;-2.31;83.89;100503.31;1770566;81;21315;-74
2021/01/10 02:27:36;;;;;;;50.00;28.95;;;;;;;-2.40;83.68;100492.69;1770731;81;21322;-76
2021/01/10 02:30:44;;;;;;;56.33;28.45;;;;;;;-2.44;83.85;100496.49;1771316;81;21177;-75
2021/01/10 02:33:59;;;;;;;50.28;29.07;;;;;;;-2.46;83.99;100495.70;1771175;81;21758;-76
2021/01/10 02:37:17;;;;;;;58.15;28.87;;;;;;;-2.44;84.17;100495.16;1771152;81;21264;-75
2021/01/10 02:41:06;;;;;;;53.15;29.20;;;;;;;-2.43;84.28;100501.37;1755893;80;21316;-76
2021/01/10 02:44:34;;;;;;;56.67;32.67;;;;;;;-2.42;84.52;100505.29;1771165;80;21358;-75
2021/01/10 02:47:40;;;;;;;53.23;30.90;;;;;;;-2.41;84.49;100508.34;1769698;81;21540;-76
2021/01/10 02:50:48;;;;;;;49.67;28.50;;;;;;;-2.41;84.55;100517.73;1771195;81;21292;-75
2021/01/10 02:53:54;;;;;;;51.83;28.87;;;;;;;-2.37;84.76;100517.08;1771082;81;21269;-75
2021/01/10 02:57:15;;;;;;;48.90;30.27;;;;;;;-2.33;84.98;100513.27;1771150;81;21853;-76
2021/01/10 03:00:22;;;;;;;49.85;28.27;;;;;;;-2.32;84.96;100509.16;1769980;81;21194;-75
2021/01/10 03:03:28;;;;;;;50.00;28.30;;;;;;;-2.32;84.88;100509.63;1769813;81;21347;-77
2021/01/10 03:06:35;;;;;;;49.00;28.90;;;;;;;-2.34;84.83;100519.11;1769851;81;21351;-76
2021/01/10 03:09:41;;;;;;;48.38;28.07;;;;;;;-2.35;84.70;100518.73;1769616;81;21352;-76
2021/01/10 03:12:47;;;;;;;47.08;27.27;;;;;;;-2.39;84.40;100513.64;1771100;81;21319;-77
2021/01/10 03:15:54;;;;;;;50.03;27.93;;;;;;;-2.42;84.17;100509.31;1771096;81;21153;-75
2021/01/10 03:19:00;;;;;;;44.67;27.32;;;;;;;-2.43;84.25;100520.98;1770450;81;21297;-76
2021/01/10 03:22:04;;;;;;;51.53;29.45;;;;;;;-2.44;84.18;100522.42;1771248;81;21304;-76
2021/01/10 03:25:12;;;;;;;53.35;30.48;;;;;;;-2.48;84.21;100524.41;1770555;81;21280;-76
2021/01/10 03:28:18;;;;;;;48.92;26.70;;;;;;;-2.50;84.38;100523.61;1770912;81;21851;-76
2021/01/10 03:31:23;;;;;;;54.48;29.32;;;;;;;-2.46;84.66;100524.30;1771092;81;21327;-76
2021/01/10 03:34:30;;;;;;;49.10;27.73;;;;;;;-2.44;84.68;100532.66;1771087;79;21197;-76
2021/01/10 03:37:36;;;;;;;55.20;28.62;;;;;;;-2.44;84.61;100528.64;1771040;81;21319;-75
2021/01/10 03:40:42;;;;;;;48.65;27.73;;;;;;;-2.44;84.64;100531.31;1770288;81;21371;-76
2021/01/10 03:43:48;;;;;;;55.73;28.70;;;;;;;-2.45;84.63;100535.41;1769716;81;21189;-77
2021/01/10 03:46:54;;;;;;;50.65;28.38;;;;;;;-2.46;84.72;100530.52;1769746;81;21368;-76
2021/01/10 03:49:59;;;;;;;48.70;26.37;;;;;;;-2.42;84.83;100528.54;1769915;81;21324;-76
2021/01/10 03:53:06;;;;;;;50.38;27.13;;;;;;;-2.41;84.78;100533.80;1771169;81;21293;-76
2021/01/10 03:56:13;;;;;;;49.93;26.85;;;;;;;-2.37;84.90;100539.85;1770072;81;21217;-75
2021/01/10 03:59:19;;;;;;;47.33;26.55;;;;;;;-2.35;85.09;100540.16;1769758;81;21188;-76
2021/01/10 04:02:24;;;;;;;51.42;27.75;;;;;;;-2.30;85.30;100537.70;1769790;81;21363;-76
2021/01/10 04:05:31;;;;;;;44.58;23.70;;;;;;;-2.24;85.47;100539.53;1769709;81;21241;-76
2021/01/10 04:08:37;;;;;;;38.00;21.75;;;;;;;-2.22;85.46;100542.11;1771103;81;21870;-76
2021/01/10 04:11:43;;;;;;;39.78;22.73;;;;;;;-2.21;85.46;100545.17;1770756;81;21323;-76
2021/01/10 04:14:48;;;;;;;47.70;26.52;;;;;;;-2.20;85.41;100546.92;1771171;81;22541;-76
2021/01/10 04:17:54;;;;;;;45.63;24.65;;;;;;;-2.18;85.39;100553.05;1769845;81;21220;-76
2021/01/10 04:21:00;;;;;;;52.08;25.57;;;;;;;-2.19;85.34;100555.34;1769623;81;21189;-76
2021/01/10 04:24:05;;;;;;;42.13;24.40;;;;;;;-2.19;85.31;100558.89;1771157;81;21565;-76
2021/01/10 04:27:11;;;;;;;44.05;24.82;;;;;;;-2.17;85.32;100555.63;1769721;81;21316;-76
2021/01/10 04:30:19;;;;;;;45.75;27.27;;;;;;;-2.12;85.28;100556.70;1770142;81;21213;-76
2021/01/10 04:33:24;;;;;;;51.20;25.80;;;;;;;-2.06;85.14;100560.38;1771824;81;21351;-76
2021/01/10 04:36:35;;;;;;;48.23;27.13;;;;;;;-2.02;84.83;100561.04;1771175;81;21911;-76
2021/01/10 04:39:43;;;;;;;45.25;23.80;;;;;;;-2.04;84.56;100558.46;1771220;81;21973;-76
2021/01/10 04:42:48;;;;;;;44.60;25.37;;;;;;;-2.00;84.53;100566.72;1771128;81;21182;-76
2021/01/10 04:45:53;;;;;;;48.23;26.77;;;;;;;-2.00;84.31;100574.76;1771879;80;21292;-76
2021/01/10 04:49:00;;;;;;;42.38;25.10;;;;;;;-2.00;84.22;100575.23;1784793;80;21346;-77
2021/01/10 04:52:04;;;;;;;40.35;23.15;;;;;;;-1.98;84.16;100578.20;1784827;80;21280;-77
2021/01/10 04:55:12;;;;;;;45.78;26.30;;;;;;;-1.94;84.11;100579.75;1783412;80;21343;-75
2021/01/10 04:58:17;;;;;;;40.38;24.55;;;;;;;-1.94;83.87;100581.09;1783320;80;21288;-76
2021/01/10 05:01:30;;;;;;;47.38;26.77;;;;;;;-1.96;83.73;100577.66;1783394;80;21331;-76
2021/01/10 05:04:38;;;;;;;46.30;25.15;;;;;;;-1.99;83.68;100583.18;1783428;80;21820;-76
2021/01/10 05:07:45;;;;;;;38.70;21.97;;;;;;;-2.03;83.68;100574.92;1772282;80;21336;-76
2021/01/10 05:10:51;;;;;;;46.92;25.82;;;;;;;-2.07;83.69;100577.39;1783361;80;21323;-76
2021/01/10 05:13:56;;;;;;;50.23;26.15;;;;;;;-2.11;83.80;100577.22;1783361;80;21331;-76
2021/01/10 05:17:03;;;;;;;44.65;26.73;;;;;;;-2.12;83.93;100578.14;1784830;80;21826;-76
2021/01/10 05:20:12;;;;;;;43.87;25.55;;;;;;;-2.13;83.99;100580.44;1784435;80;21287;-76
2021/01/10 05:23:18;;;;;;;35.85;21.52;;;;;;;-2.15;84.04;100582.36;1771645;80;21827;-76
2021/01/10 05:26:24;;;;;;;36.53;20.95;;;;;;;-2.19;84.08;100583.00;1770959;80;21850;-77
2021/01/10 05:29:32;;;;;;;49.42;25.05;;;;;;;-2.22;84.23;100587.19;1783300;80;21307;-76
2021/01/10 05:32:38;;;;;;;44.80;24.77;;;;;;;-2.22;84.27;100589.02;1752338;80;21212;-77
2021/01/10 05:35:58;;;;;;;47.45;27.02;;;;;;;-2.24;84.34;100588.25;1783880;79;21319;-76
2021/01/10 05:39:05;;;;;;;40.35;24.27;;;;;;;-2.25;84.41;100587.39;1784887;80;21284;-77
2021/01/10 05:42:14;;;;;;;53.15;25.27;;;;;;;-2.26;84.50;100588.31;1784334;80;21215;-76
2021/01/10 05:45:20;;;;;;;37.98;21.82;;;;;;;-2.23;84.53;100589.97;1783349;80;21223;-76
2021/01/10 05:48:26;;;;;;;33.23;20.80;;;;;;;-2.21;84.59;100593.41;1783250;80;21311;-76
2021/01/10 05:51:36;;;;;;;37.55;21.57;;;;;;;-2.21;84.57;100602.34;1783689;80;21866;-76
2021/01/10 05:54:58;;;;;;;48.80;26.45;;;;;;;-2.21;84.57;100604.13;1783318;80;21899;-76
2021/01/10 05:58:04;;;;;;;37.70;21.17;;;;;;;-2.22;84.58;100601.07;1785564;80;21296;-76
2021/01/10 06:01:20;;;;;;;41.25;24.92;;;;;;;-2.22;84.65;100602.41;1784292;80;21185;-76
2021/01/10 06:04:32;;;;;;;42.20;23.50;;;;;;;-2.22;84.74;100603.27;1784990;80;21311;-76
2021/01/10 06:07:40;;;;;;;38.95;24.15;;;;;;;-2.21;84.76;100609.49;1784923;80;21854;-76
2021/01/10 06:10:46;;;;;;;42.40;23.65;;;;;;;-2.18;84.86;100614.69;1784526;80;21327;-76
2021/01/10 06:13:57;;;;;;;41.75;24.15;;;;;;;-2.15;84.93;100620.74;1783613;80;21331;-76
2021/01/10 06:17:05;;;;;;;37.55;21.82;;;;;;;-2.12;84.86;100623.26;1785031;80;21192;-76
2021/01/10 06:20:20;;;;;;;46.25;24.82;;;;;;;-2.08;84.83;100627.95;1783443;80;21311;-75
2021/01/10 06:23:26;;;;;;;43.80;23.25;;;;;;;-2.06;84.70;100632.76;1784957;80;21295;-75
2021/01/10 06:26:33;;;;;;;37.28;21.55;;;;;;;-2.01;84.72;100636.52;1771464;80;21169;-75
2021/01/10 06:29:45;;;;;;;44.08;23.77;;;;;;;-1.95;84.73;100638.36;1784930;80;21735;-77
2021/01/10 06:32:50;;;;;;;42.58;25.30;;;;;;;-1.88;84.64;100646.45;1784944;80;21811;-76
2021/01/10 06:35:57;;;;;;;42.73;24.65;;;;;;;-1.82;84.56;100643.87;1770049;80;21323;-76
2021/01/10 06:39:20;;;;;;;46.40;25.88;;;;;;;-1.75;84.41;100645.71;1784854;80;21815;-76
2021/01/10 06:42:26;;;;;;;40.23;24.07;;;;;;;-1.71;84.29;100648.61;1783888;80;21165;-76
2021/01/10 06:45:33;;;;;;;42.40;24.20;;;;;;;-1.70;84.10;100646.30;1784830;80;21192;-76
2021/01/10 06:48:39;;;;;;;46.73;25.43;;;;;;;-1.69;84.01;100652.08;1780566;80;21835;-76
2021/01/10 06:51:45;;;;;;;34.03;20.02;;;;;;;-1.71;83.93;100657.52;1770506;81;21315;-77
2021/01/10 06:54:53;;;;;;;47.33;24.80;;;;;;;-1.70;83.84;100658.38;1769744;81;21843;-77
2021/01/10 06:57:59;;;;;;;36.00;21.97;;;;;;;-1.69;83.86;100646.72;1771491;81;21398;-76
2021/01/10 07:01:05;;;;;;;39.15;23.05;;;;;;;-1.67;83.77;100648.81;1769622;81;21299;-76
2021/01/10 07:04:10;;;;;;;41.35;23.80;;;;;;;-1.69;83.68;100653.42;1771304;81;21297;-76
2021/01/10 07:07:15;;;;;;;38.08;22.58;;;;;;;-1.72;83.70;100651.77;1771177;81;21301;-76
2021/01/10 07:10:22;;;;;;;33.02;19.02;;;;;;;-1.74;83.69;100651.45;1771108;81;21297;-76
2021/01/10 07:13:33;;;;;;;46.48;26.60;;;;;;;-1.80;83.69;100653.55;1762886;81;21331;-76
2021/01/10 07:16:38;;;;;;;38.40;22.50;;;;;;;-1.85;83.78;100648.93;1771171;81;21287;-75
2021/01/10 07:19:55;;;;;;;47.55;26.42;;;;;;;-1.85;83.95;100650.75;1771261;81;21316;-76
2021/01/10 07:23:01;;;;;;;36.65;22.13;;;;;;;-1.87;83.99;100651.33;1769928;81;21295;-77
2021/01/10 07:26:07;;;;;;;40.38;24.43;;;;;;;-1.89;84.08;100653.22;1762614;81;21284;-76
2021/01/10 07:29:14;;;;;;;37.98;23.00;;;;;;;-1.90;84.20;100656.86;1770627;81;21316;-76
2021/01/10 07:32:23;;;;;;;32.78;19.00;;;;;;;-1.93;84.29;100657.91;1762283;81;21366;-76
2021/01/10 07:35:30;;;;;;;39.83;22.50;;;;;;;-1.93;84.41;100657.02;1770401;79;21360;-76
2021/01/10 07:38:37;;;;;;;40.55;22.55;;;;;;;-1.94;84.56;100657.50;1770715;81;21299;-76
2021/01/10 07:41:44;;;;;;;42.78;23.90;;;;;;;-1.92;84.71;100658.30;1742761;81;21311;-77
2021/01/10 07:45:17;;;;;;;45.25;25.60;;;;;;;-1.95;84.84;100661.14;1769904;81;21335;-75
2021/01/10 07:48:36;;;;;;;44.80;25.23;;;;;;;-1.93;85.04;100668.64;1771149;81;21845;-76
2021/01/10 07:51:42;;;;;;;41.58;24.32;;;;;;;-1.85;85.19;100662.81;1784502;80;21335;-76
2021/01/10 07:55:00;;;;;;;43.23;25.80;;;;;;;-1.82;85.17;100663.98;1769400;80;21335;-76
2021/01/10 07:58:21;;;;;;;49.08;28.95;;;;;;;-1.82;85.31;100670.22;1784798;80;21208;-76
2021/01/10 08:01:27;;;;;;;58.92;31.12;;;;;;;-1.78;85.58;100660.66;1784214;80;21236;-77
2021/01/10 08:04:41;;;;;;;46.85;25.82;;;;;;;-1.70;85.72;100668.62;1784531;80;21608;-76
2021/01/10 08:07:48;;;;;;;48.42;28.32;;;;;;;-1.62;85.84;100665.50;1784221;80;21157;-76
2021/01/10 08:11:01;;;;;;;44.93;27.95;;;;;;;-1.52;85.98;100665.34;1784286;80;21365;-75
2021/01/10 08:14:07;;;;;;;48.58;29.20;;;;;;;-1.42;86.02;100670.55;1784811;80;21200;-76
2021/01/10 08:17:20;;;;;;;51.83;28.90;;;;;;;-1.32;85.85;100673.09;1782925;80;21788;-76
2021/01/10 08:20:26;;;;;;;51.73;29.05;;;;;;;-1.21;85.95;100680.48;1784521;80;21299;-76
2021/01/10 08:23:32;;;;;;;42.08;24.95;;;;;;;-1.11;85.89;100676.77;1783519;80;21338;-76
2021/01/10 08:26:37;;;;;;;47.10;28.95;;;;;;;-1.05;85.81;100673.22;1784486;80;22419;-75
2021/01/10 08:29:45;;;;;;;49.65;28.30;;;;;;;-1.01;85.23;100672.56;1784290;80;21221;-75
2021/01/10 08:32:50;;;;;;;39.08;23.32;;;;;;;-0.94;85.36;100671.70;1784132;80;21208;-76
2021/01/10 08:35:55;;;;;;;46.23;25.72;;;;;;;-0.91;85.28;100669.69;1783470;79;21799;-76
2021/01/10 08:39:08;;;;;;;50.92;26.40;;;;;;;-0.90;84.98;100670.07;1784977;80;21304;-76
2021/01/10 08:42:14;;;;;;;50.15;28.07;;;;;;;-0.86;84.94;100672.95;1784630;80;21335;-75
2021/01/10 08:45:28;;;;;;;42.73;24.52;;;;;;;-0.81;84.83;100665.47;1783966;80;21319;-76
2021/01/10 08:48:34;;;;;;;42.83;24.70;;;;;;;-0.74;84.66;100667.80;1783104;80;21831;-76
2021/01/10 08:51:50;;;;;;;41.83;23.67;;;;;;;-0.75;84.39;100662.02;1775145;80;21256;-75
2021/01/10 08:54:59;;;;;;;42.88;24.00;;;;;;;-0.74;84.46;100659.26;1770257;81;21788;-76
2021/01/10 08:58:07;;;;;;;43.03;24.50;;;;;;;-0.70;84.52;100658.59;1771312;81;21323;-75
2021/01/10 09:01:13;;;;;;;43.23;26.23;;;;;;;-0.67;84.45;100657.04;1770380;81;21213;-75
2021/01/10 09:04:20;;;;;;;40.33;23.62;;;;;;;-0.64;84.50;100656.86;1769661;81;21296;-75
2021/01/10 09:07:31;;;;;;;43.55;26.35;;;;;;;-0.60;84.44;100652.54;1771156;81;21183;-75
2021/01/10 09:10:39;;;;;;;36.33;22.42;;;;;;;-0.56;84.65;100654.08;1771113;81;21284;-75
2021/01/10 09:13:45;;;;;;;32.88;19.98;;;;;;;-0.48;84.73;100652.23;1770652;81;22544;-75
2021/01/10 09:16:49;;;;;;;47.75;25.32;;;;;;;-0.45;84.68;100651.19;1771239;81;21534;-76
2021/01/10 09:19:57;;;;;;;47.33;29.32;;;;;;;-0.42;84.67;100653.20;1772002;81;21154;-75
2021/01/10 09:23:04;;;;;;;34.67;21.20;;;;;;;-0.33;84.95;100650.37;1770907;81;21244;-75
2021/01/10 09:26:09;;;;;;;38.13;23.18;;;;;;;-0.23;84.87;100644.81;1770748;81;21339;-75
2021/01/10 09:29:25;;;;;;;31.87;18.73;;;;;;;-0.19;84.63;100643.63;1770817;81;21295;-75
2021/01/10 09:32:31;;;;;;;44.33;26.50;;;;;;;-0.14;84.51;100641.53;1769315;81;21883;-75
2021/01/10 09:35:47;;;;;;;42.25;26.45;;;;;;;-0.12;84.36;100638.73;1770221;79;21327;-75
2021/01/10 09:39:03;;;;;;;42.88;26.68;;;;;;;-0.05;84.57;100636.01;1762468;81;21355;-75
2021/01/10 09:42:09;;;;;;;38.23;24.30;;;;;;;0.07;84.50;100635.22;1769665;81;21335;-75
2021/01/10 09:45:16;;;;;;;36.03;22.90;;;;;;;0.14;84.38;100633.86;1769646;81;21308;-75
2021/01/10 09:48:22;;;;;;;38.88;23.25;;;;;;;0.17;84.09;100630.08;1769578;81;21292;-75
2021/01/10 09:51:29;;;;;;;41.05;24.85;;;;;;;0.19;83.79;100635.76;1772520;80;21161;-75
2021/01/10 09:54:41;;;;;;;34.53;20.88;;;;;;;0.14;83.55;100630.27;1784073;80;21361;-75
2021/01/10 09:57:46;;;;;;;34.43;21.95;;;;;;;0.14;83.75;100630.27;1784975;80;21177;-75
2021/01/10 10:01:08;;;;;;;36.90;23.60;;;;;;;0.17;83.75;100632.28;1784829;80;21224;-75
2021/01/10 10:04:12;;;;;;;42.43;25.57;;;;;;;0.22;83.73;100634.19;1783630;80;21343;-75
2021/01/10 10:07:17;;;;;;;36.42;19.90;;;;;;;0.30;83.68;100639.06;1784866;80;21878;-75
2021/01/10 10:10:34;;;;;;;40.05;24.77;;;;;;;0.38;83.61;100642.11;1784846;80;21303;-75
2021/01/10 10:13:40;;;;;;;39.85;24.40;;;;;;;0.40;83.44;100634.78;1784824;80;21319;-76
2021/01/10 10:16:46;;;;;;;46.10;26.12;;;;;;;0.51;83.58;100625.97;1784447;80;21204;-75
2021/01/10 10:19:52;;;;;;;35.55;22.30;;;;;;;0.60;83.35;100620.45;1783328;80;21292;-76
2021/01/10 10:22:58;;;;;;;35.85;22.25;;;;;;;0.69;83.26;100618.47;1784843;80;21291;-76
2021/01/10 10:26:04;;;;;;;34.30;21.45;;;;;;;0.78;83.04;100626.41;1784821;80;21294;-76
2021/01/10 10:29:10;;;;;;;36.93;23.60;;;;;;;0.84;82.82;100627.31;1784842;80;21711;-75
2021/01/10 10:32:17;;;;;;;28.02;17.20;;;;;;;0.90;82.58;100625.08;1784261;80;21422;-76
2021/01/10 10:35:24;;;;;;;35.33;20.90;;;;;;;0.98;82.40;100628.56;1783910;79;21638;-76
2021/01/10 10:38:31;;;;;;;34.50;21.35;;;;;;;1.04;81.85;100628.16;1784858;80;21339;-76
2021/01/10 10:41:39;;;;;;;32.98;20.55;;;;;;;1.06;81.29;100616.77;1783470;80;21220;-76
2021/01/10 10:44:46;;;;;;;29.60;17.70;;;;;;;1.10;81.06;100610.69;1784232;80;21251;-75
2021/01/10 10:47:51;;;;;;;34.25;18.00;;;;;;;1.16;81.08;100611.59;1784084;80;21342;-75
2021/01/10 10:50:59;;;;;;;29.67;19.75;;;;;;;1.19;80.31;100612.25;1783110;80;21176;-76
2021/01/10 10:54:07;;;;;;;31.30;19.37;;;;;;;1.21;80.12;100606.25;1774797;80;21355;-75
2021/01/10 10:57:14;;;;;;;27.37;17.02;;;;;;;1.27;80.06;100611.68;1771118;81;21712;-75
2021/01/10 11:00:22;;;;;;;27.98;18.10;;;;;;;1.31;79.51;100605.59;1769491;81;21185;-75
2021/01/10 11:03:27;;;;;;;29.75;17.67;;;;;;;1.35;79.06;100601.71;1770515;81;21319;-75
2021/01/10 11:06:35;;;;;;;28.20;17.90;;;;;;;1.40;78.82;100602.23;1771105;81;21327;-75
2021/01/10 11:09:44;;;;;;;25.97;17.30;;;;;;;1.42;78.66;100605.70;1769710;80;21173;-75
2021/01/10 11:12:51;;;;;;;25.55;16.85;;;;;;;1.45;78.03;100602.77;1771210;81;21947;-76
2021/01/10 11:15:56;;;;;;;25.97;14.83;;;;;;;1.49;77.89;100601.09;1770135;81;21903;-75
2021/01/10 11:19:02;;;;;;;30.52;17.48;;;;;;;1.53;77.57;100601.73;1769399;81;21189;-75
2021/01/10 11:22:09;;;;;;;26.27;17.00;;;;;;;1.54;76.94;100593.52;1769643;81;21728;-76
2021/01/10 11:25:16;;;;;;;24.40;15.50;;;;;;;1.55;76.77;100595.73;1772067;81;21459;-75
2021/01/10 11:28:22;;;;;;;26.55;15.30;;;;;;;1.58;76.64;100602.25;1771461;81;21736;-75
2021/01/10 11:31:29;;;;;;;22.90;16.50;;;;;;;1.62;76.67;100601.06;1771178;81;21312;-76
2021/01/10 11:34:36;;;;;;;30.62;18.48;;;;;;;1.60;76.20;100604.38;1769589;79;21874;-76
2021/01/10 11:37:41;;;;;;;32.73;17.57;;;;;;;1.60;76.44;100608.88;1771115;81;21221;-76
2021/01/10 11:40:46;;;;;;;23.22;14.30;;;;;;;1.58;76.49;100610.84;1771140;81;21899;-75
2021/01/10 11:43:52;;;;;;;30.05;19.00;;;;;;;1.54;76.31;100602.09;1771129;81;21292;-75
2021/01/10 11:46:59;;;;;;;26.65;17.85;;;;;;;1.51;76.17;100609.09;1769738;81;21174;-75
2021/01/10 11:50:05;;;;;;;29.23;17.67;;;;;;;1.53;76.64;100604.43;1771070;81;21185;-75
2021/01/10 11:53:12;;;;;;;30.25;18.75;;;;;;;1.57;76.62;100611.33;1771056;81;21312;-75
2021/01/10 11:56:19;;;;;;;25.45;17.40;;;;;;;1.62;76.90;100612.34;1783655;80;21323;-75
2021/01/10 11:59:25;;;;;;;28.87;17.75;;;;;;;1.66;76.97;100609.80;1784730;80;21252;-76
2021/01/10 12:02:30;;;;;;;30.60;19.32;;;;;;;1.65;76.79;100614.33;1784981;80;21295;-75
2021/01/10 12:05:37;;;;;;;28.27;18.42;;;;;;;1.63;76.85;100613.56;1783050;80;21302;-76
2021/01/10 12:08:43;;;;;;;24.15;16.15;;;;;;;1.61;76.87;100620.92;1783186;80;21292;-75
2021/01/10 12:11:48;;;;;;;33.10;17.27;;;;;;;1.60;76.97;100616.51;1783075;80;21799;-75
2021/01/10 12:14:53;;;;;;;27.93;17.27;;;;;;;1.61;77.17;100630.36;1784561;80;21300;-76
2021/01/10 12:17:59;;;;;;;26.87;16.62;;;;;;;1.60;77.05;100627.75;1784536;80;21300;-75
2021/01/10 12:21:05;;;;;;;25.12;17.12;;;;;;;1.56;76.98;100628.48;1784594;80;21220;-75
2021/01/10 12:24:11;;;;;;;27.75;15.68;;;;;;;1.52;76.77;100629.19;1784600;80;21161;-75
2021/01/10 12:27:19;;;;;;;24.70;15.32;;;;;;;1.49;76.60;100628.53;1783383;80;21180;-75
2021/01/10 12:30:25;;;;;;;30.27;18.45;;;;;;;1.46;76.94;100628.28;1769931;80;21173;-76
2021/01/10 12:33:32;;;;;;;30.50;17.73;;;;;;;1.46;77.21;100630.98;1784463;80;21295;-75
2021/01/10 12:36:38;;;;;;;30.50;18.87;;;;;;;1.46;77.40;100637.72;1783003;80;21209;-75
2021/01/10 12:39:43;;;;;;;27.27;17.02;;;;;;;1.46;77.69;100642.26;1784514;80;21187;-75
2021/01/10 12:42:49;;;;;;;23.75;13.93;;;;;;;1.43;77.92;100639.28;1784533;80;21180;-76
2021/01/10 12:45:58;;;;;;;29.95;17.87;;;;;;;1.41;77.95;100641.69;1784425;80;21303;-75
2021/01/10 12:49:04;;;;;;;28.23;18.10;;;;;;;1.38;78.01;100648.19;1783406;80;21800;-75
2021/01/10 12:52:12;;;;;;;36.00;20.25;;;;;;;1.38;78.18;100637.89;1784563;80;21998;-75
2021/01/10 12:55:19;;;;;;;27.50;17.67;;;;;;;1.40;78.36;100634.09;1782196;80;21386;-75
2021/01/10 12:58:30;;;;;;;31.87;18.85;;;;;;;1.39;78.59;100637.77;1771084;81;21335;-75
2021/01/10 13:01:35;;;;;;;32.15;19.80;;;;;;;1.35;78.77;100644.34;1771085;81;21867;-75
2021/01/10 13:04:46;;;;;;;34.63;21.27;;;;;;;1.32;78.89;100643.23;1770837;81;21356;-75
2021/01/10 13:07:53;;;;;;;33.38;20.55;;;;;;;1.28;79.14;100650.67;1769557;81;21193;-76
2021/01/10 13:10:58;;;;;;;31.05;20.57;;;;;;;1.23;79.44;100648.79;1771060;81;21285;-75
2021/01/10 13:14:03;;;;;;;33.90;20.72;;;;;;;1.18;79.77;100654.99;1771087;81;21229;-75
2021/01/10 13:17:12;;;;;;;35.13;21.45;;;;;;;1.16;80.04;100658.75;1770464;81;21201;-75
2021/01/10 13:20:19;;;;;;;30.65;20.57;;;;;;;1.15;80.28;100661.93;1769948;81;21327;-75
2021/01/10 13:23:25;;;;;;;33.98;21.80;;;;;;;1.12;80.43;100662.62;1771465;81;21312;-75
2021/01/10 13:26:32;;;;;;;35.20;21.70;;;;;;;1.09;80.65;100663.72;1769694;81;21303;-75
2021/01/10 13:29:38;;;;;;;38.80;23.98;;;;;;;1.06;80.78;100671.14;1771051;81;21292;-75
2021/01/10 13:32:44;;;;;;;36.38;23.47;;;;;;;1.02;80.96;100663.27;1771098;81;21177;-75
2021/01/10 13:35:50;;;;;;;34.03;21.15;;;;;;;0.99;81.13;100664.84;1770065;79;21831;-76
2021/01/10 13:38:57;;;;;;;39.90;23.83;;;;;;;0.96;81.25;100674.96;1769592;81;21295;-75
2021/01/10 13:42:02;;;;;;;34.63;20.80;;;;;;;0.91;81.37;100674.42;1771471;81;21182;-75
2021/01/10 13:45:10;;;;;;;31.42;18.98;;;;;;;0.88;81.43;100677.31;1771017;81;21752;-75
2021/01/10 13:48:16;;;;;;;37.05;22.98;;;;;;;0.84;81.50;100679.84;1770267;81;21225;-76
2021/01/10 13:51:30;;;;;;;39.05;22.55;;;;;;;0.81;81.58;100686.31;1771837;81;21838;-75
2021/01/10 13:54:37;;;;;;;38.00;22.32;;;;;;;0.77;81.65;100692.87;1771401;81;21272;-76
2021/01/10 13:57:45;;;;;;;37.80;23.73;;;;;;;0.74;81.69;100696.62;1770540;80;21193;-75
2021/01/10 14:00:53;;;;;;;38.78;23.20;;;;;;;0.72;81.72;100701.26;1770900;81;21300;-76
2021/01/10 14:03:58;;;;;;;38.55;23.52;;;;;;;0.69;81.72;100705.98;1771044;81;21300;-76
2021/01/10 14:07:07;;;;;;;40.40;25.32;;;;;;;0.67;81.74;100710.13;1770426;81;21205;-76
2021/01/10 14:10:14;;;;;;;42.03;25.23;;;;;;;0.65;81.70;100709.35;1769572;81;21296;-75
2021/01/10 14:13:19;;;;;;;39.58;24.43;;;;;;;0.62;81.68;100705.55;1771063;81;21308;-76
2021/01/10 14:16:25;;;;;;;39.00;25.60;;;;;;;0.59;81.74;100700.84;1771274;81;21185;-76